Ευχαριστούμε που συμβάλλετε στη διατήρηση της σελίδας μας.

Thank you for your donations, it really helps to maintain the page.

Meteo Stats And More

Στατιστικά Καιρού Και Άλλα






Δείκτης πυρκαγιάς (FWI)

Κάμερα Ρωμανού more information Romanos Cam


Ιστιοπλοικός Όμιλος Πάτρας more information Istioploikos Omilos Patras


Ραντάρ Κεραυνών more information blitzortung!


Ραντάρ Βροχής more information rain snow radar



Κοντινές Αναφορές METAR

  
LGRX - Araxos (civ/Afb), Greece
Απόσταση από τον σταθμό: ΔΝΔ 30km
Ενημερώθηκε: 25-04-2018 09:20
Ομίχλη, Κυρίως Συννεφιά
Ομίχλη, Κυρίως Συννεφιά  
 Άνεμος από calm
Άνεμος: Άπνοια
Θερμοκρασία:  17°C
Σημείο Δρόσου:  16°C
Υγρασία:  94%
Βαρόμετρο:  1018 hPa
Περίληψη:  Ομίχλη
Σύννεφα:  Κυρίως Συννεφιά
Ορατότητα:  4 km
Λεπτομέρειες Σύννεφου:  Κυρίως Συννεφιά 213 m
2018/04/25 06:20 LGRX 250620Z 00000KT 4000 BR BKN007 17/16 Q1018
LGAD - Andravida (civ/A, Greece
Απόσταση από τον σταθμό: ΝΔ 55km
Ενημερώθηκε: 25-04-2018 09:20
Ομίχλη, Κυρίως Συννεφιά
Ομίχλη, Κυρίως Συννεφιά  
 Άνεμος από calm
Άνεμος: Άπνοια
Θερμοκρασία:  16°C
Σημείο Δρόσου:  15°C
Υγρασία:  94%
Βαρόμετρο:  1018 hPa
Περίληψη:  Ομίχλη
Σύννεφα:  Κυρίως Συννεφιά
Ορατότητα:  0 km
Λεπτομέρειες Σύννεφου:  Κυρίως Συννεφιά 122 m
2018/04/25 06:20 LGAD 250620Z 00000KT 0200 FG BKN004 16/15 Q1018
LGZA - Zakinthos Airpor, Greece
Απόσταση από τον σταθμό: ΝΔ 95km
Ενημερώθηκε: 25-04-2018 09:20
Ομίχλη, Μερικώς νεφελώδης
Ομίχλη, Μερικώς νεφελώδης  
 Άνεμος από calm
Άνεμος: Άπνοια
Θερμοκρασία:  16°C
Σημείο Δρόσου:  15°C
Υγρασία:  94%
Βαρόμετρο:  1018 hPa
Περίληψη:  Ομίχλη
Σύννεφα:  Μερικώς Νεφελώδης
Ορατότητα:  5 km
Λεπτομέρειες Σύννεφου:  Μερικώς Νεφελώδης 244 m
2018/04/25 06:20 LGZA 250620Z 00000KT 5000 BR SCT008 16/15 Q1018
LGKF - Kefallinia, Greece
Απόσταση από τον σταθμό: Δ 110km
Ενημερώθηκε: 25-04-2018 08:50
Κυρίως Αίθριος
Κυρίως Αίθριος  
 Άνεμος από calm
Άνεμος: Άπνοια
Θερμοκρασία:  16°C
Σημείο Δρόσου:  13°C
Υγρασία:  83%
Βαρόμετρο:  1018 hPa
Σύννεφα:  Κυρίως Αίθριος
Ορατότητα:  10 km
Λεπτομέρειες Σύννεφου:  Κυρίως Αίθριος 488 m
2018/04/25 05:50 LGKF 250550Z 00000KT 9999 FEW016 16/13 Q1018
LGPZ - Preveza/Aktion, Greece
Απόσταση από τον σταθμό: ΒΔ 114km
Ενημερώθηκε: 25-04-2018 09:20
Μερικώς Νεφελώδης
Μερικώς Νεφελώδης  
 Άνεμος από calm
Άνεμος: Άπνοια
Θερμοκρασία:  17°C
Σημείο Δρόσου:  17°C
Υγρασία:  100%
Βαρόμετρο:  1019 hPa
Σύννεφα:  Μερικώς Νεφελώδης
Ορατότητα:  6 km
Λεπτομέρειες Σύννεφου:  Κυρίως Αίθριος 305 m
Μερικώς Νεφελώδης 914 m
2018/04/25 06:20 LGPZ 250620Z 00000KT 6000 FEW010 SCT030 17/17 Q1019
LGKL - Kalamata (hel-Af, Greece
Απόσταση από τον σταθμό: Ν 132km
Ενημερώθηκε: 25-04-2018 09:20
Αίθριος
Αίθριος  
 Άνεμος από ΒΒΔ
Άνεμος: ΒΒΔ 13 km/h
Θερμοκρασία:  20°C
Σημείο Δρόσου:  8°C
Υγρασία:  46%
Βαρόμετρο:  1016 hPa
Περίληψη:  Αίθριος
Ορατότητα:  μεγαλύτερο από 10 km
2018/04/25 06:20 LGKL 250620Z 33007KT CAVOK 20/08 Q1016
LGBL - Nea Anchialos, Greece
Απόσταση από τον σταθμό: ΒΑ 142km
Ενημερώθηκε: 25-04-2018 09:20
Αίθριος
Αίθριος  
 Άνεμος από ΔΒΔ
Άνεμος: ΔΒΔ 7 km/h
Θερμοκρασία:  20°C
Σημείο Δρόσου:  10°C
Υγρασία:  53%
Βαρόμετρο:  1016 hPa
Περίληψη:  Αίθριος
Ορατότητα:  μεγαλύτερο από 10 km
2018/04/25 06:20 LGBL 250620Z 30004KT CAVOK 20/10 Q1016
LGEL - Elefsis (hel-Afb, Greece
Απόσταση από τον σταθμό: Α 158km
Ενημερώθηκε: 25-04-2018 09:20
Αίθριος
Αίθριος  
 Άνεμος από calm
Άνεμος: Άπνοια
Θερμοκρασία:  23°C
Σημείο Δρόσου:  7°C
Υγρασία:  36%
Βαρόμετρο:  1015 hPa
Περίληψη:  Αίθριος
Ορατότητα:  μεγαλύτερο από 10 km
2018/04/25 06:20 LGEL 250620Z 00000KT CAVOK 23/07 Q1015
LGIO - Ioannina, Greece
Απόσταση από τον σταθμό: ΒΒΔ 181km
Ενημερώθηκε: 25-04-2018 09:20
Αίθριος
Αίθριος  
 Άνεμος από ποικίλλει
Άνεμος: ποικίλλει 0 km/h
Θερμοκρασία:  13°C
Σημείο Δρόσου:  10°C
Υγρασία:  82%
Βαρόμετρο:  1019 hPa
Περίληψη:  Αίθριος
Ορατότητα:  μεγαλύτερο από 10 km
2018/04/25 06:20 LGIO 250620Z /////KT CAVOK 13/10 Q1019
LGSK - Skiathos Island, Greece
Απόσταση από τον σταθμό: ΒΑ 185km
Ενημερώθηκε: 25-04-2018 08:50
Κυρίως Αίθριος
Κυρίως Αίθριος  
 Άνεμος από Β
Άνεμος: Β 20 km/h
Θερμοκρασία:  19°C
Σημείο Δρόσου:  14°C
Υγρασία:  73%
Βαρόμετρο:  1015 hPa
Σύννεφα:  Κυρίως Αίθριος
Ορατότητα:  10 km
Λεπτομέρειες Σύννεφου:  Κυρίως Αίθριος 762 m
2018/04/25 05:50 LGSK 250550Z 01011KT 9999 FEW025 19/14 Q1015
LGAV - Athens/Elef-Ven, Greece
Απόσταση από τον σταθμό: Α 195km
Ενημερώθηκε: 25-04-2018 09:20
Αίθριος
Αίθριος  
 Άνεμος από ποικίλλει
Άνεμος: ποικίλλει 2 km/h
Θερμοκρασία:  22°C
Σημείο Δρόσου:  7°C
Υγρασία:  38%
Βαρόμετρο:  1016 hPa
Περίληψη:  Αίθριος
Ορατότητα:  μεγαλύτερο από 10 km
2018/04/25 06:20 LGAV 250620Z VRB01KT CAVOK 22/07 Q1016 NOSIG
LGKR - Ioannis Kapodist, Greece
Απόσταση από τον σταθμό: ΒΔ 221km
Ενημερώθηκε: 25-04-2018 09:20
Αίθριος
Αίθριος  
 Άνεμος από calm
Άνεμος: Άπνοια
Θερμοκρασία:  17°C
Σημείο Δρόσου:  14°C
Υγρασία:  83%
Βαρόμετρο:  1017 hPa
Περίληψη:  Αίθριος
Ορατότητα:  μεγαλύτερο από 10 km
2018/04/25 06:20 LGKR 250620Z 00000KT CAVOK 17/14 Q1017 NOSIG

Script developed by  Saratoga-weather.org Προσαρμοσμένος για το πρότυπο του  Weerstation Leuven

Μπορείτε να βρείτε πληροφορίες καιρού μας και σε:


European Weather Network

WeatherCloud

Weather Underground

Hellas Meteo Network

AWEKAS

HAMweather, WeatherForYou, PWS Weather